Time;durP1;ratioP1;P1;durP2;ratioP2;P2;SDS_P1;SDS_P2;PMS_P1;PMS_P2;Temp;Humidity;BMP_temperature;BMP_pressure;BME280_temperature;BME280_humidity;BME280_pressure;Samples;Min_cycle;Max_cycle;Signal;HPM_P1;HPM_P2
2023/04/10 00:00:08;;;;;;;0.50;0.50;;;;;;;4.84;69.65;97463.50;29395;272;63020;-57
2023/04/10 00:00:41;;;;;;;0.60;0.60;;;;;;;4.85;69.71;97457.06;29395;208;63009;-57
2023/04/10 00:01:12;;;;;;;0.60;0.60;;;;;;;4.84;69.67;97464.31;29395;199;63005;-58
2023/04/10 00:01:44;;;;;;;0.50;0.50;;;;;;;4.83;70.18;97453.78;29395;288;63009;-57
2023/04/10 00:02:15;;;;;;;0.50;0.50;;;;;;;4.81;69.97;97461.28;29394;240;64005;-60
2023/04/10 00:02:47;;;;;;;0.60;0.60;;;;;;;4.81;70.38;97455.91;29395;284;63009;-57
2023/04/10 00:03:18;;;;;;;0.60;0.60;;;;;;;4.80;69.88;97459.66;29395;205;63005;-57
2023/04/10 00:03:51;;;;;;;0.60;0.60;;;;;;;4.79;69.60;97456.16;29395;213;63009;-56
2023/04/10 00:04:23;;;;;;;0.50;0.50;;;;;;;4.77;69.63;97455.56;29394;223;64004;-57
2023/04/10 00:04:55;;;;;;;0.60;0.60;;;;;;;4.77;69.66;97454.75;29395;197;63004;-57
2023/04/10 00:05:27;;;;;;;0.60;0.60;;;;;;;4.76;70.04;97451.25;29394;216;64004;-57
2023/04/10 00:05:58;;;;;;;0.50;0.50;;;;;;;4.76;69.82;97458.50;29395;202;63009;-57
2023/04/10 00:06:30;;;;;;;0.60;0.60;;;;;;;4.76;70.48;97458.50;29395;225;63004;-57
2023/04/10 00:07:01;;;;;;;0.50;0.50;;;;;;;4.74;70.40;97455.25;29395;212;63008;-58
2023/04/10 00:07:33;;;;;;;0.60;0.60;;;;;;;4.71;70.23;97454.66;29395;198;63005;-57
2023/04/10 00:08:04;;;;;;;0.60;0.60;;;;;;;4.68;70.17;97452.47;29395;205;63009;-57
2023/04/10 00:08:35;;;;;;;0.60;0.60;;;;;;;4.67;69.92;97450.81;29395;247;63005;-56
2023/04/10 00:09:08;;;;;;;0.60;0.60;;;;;;;4.68;69.88;97455.16;29395;202;63009;-57
2023/04/10 00:09:39;;;;;;;0.60;0.60;;;;;;;4.71;69.91;97451.97;29395;208;63005;-57
2023/04/10 00:10:10;;;;;;;0.55;0.55;;;;;;;4.73;69.67;97446.34;29395;229;63009;-57
2023/04/10 00:10:45;;;;;;;0.50;0.50;;;;;;;4.75;69.88;97451.50;29394;273;64005;-57
2023/04/10 00:11:16;;;;;;;0.60;0.60;;;;;;;4.70;69.94;97450.34;29395;245;63009;-57
2023/04/10 00:11:48;;;;;;;0.50;0.50;;;;;;;4.69;70.35;97447.91;29395;207;63004;-57
2023/04/10 00:12:19;;;;;;;0.60;0.60;;;;;;;4.68;70.52;97452.47;29395;202;63009;-58
2023/04/10 00:12:52;;;;;;;0.52;0.52;;;;;;;4.69;69.87;97440.66;29395;234;63004;-57
2023/04/10 00:13:24;;;;;;;0.60;0.60;;;;;;;4.70;69.97;97449.53;29395;338;63009;-57
2023/04/10 00:13:55;;;;;;;0.60;0.60;;;;;;;4.71;70.31;97451.97;29395;251;63004;-57
2023/04/10 00:14:26;;;;;;;0.60;0.60;;;;;;;4.71;70.08;97446.59;29395;212;63008;-57
2023/04/10 00:14:58;;;;;;;0.52;0.52;;;;;;;4.74;70.15;97444.50;29395;200;63005;-57
2023/04/10 00:15:29;;;;;;;0.60;0.60;;;;;;;4.74;70.05;97448.00;29395;266;63009;-57
2023/04/10 00:16:00;;;;;;;0.57;0.57;;;;;;;4.72;70.04;97448.22;29394;221;64005;-57
2023/04/10 00:16:32;;;;;;;0.60;0.60;;;;;;;4.70;69.88;97444.97;29395;231;63009;-57
2023/04/10 00:17:03;;;;;;;0.60;0.60;;;;;;;4.71;69.72;97438.53;29395;265;63005;-57
2023/04/10 00:17:34;;;;;;;0.52;0.52;;;;;;;4.71;69.90;97446.59;29395;205;63009;-56
2023/04/10 00:18:05;;;;;;;0.60;0.60;;;;;;;4.71;69.81;97446.59;29395;231;63005;-57
2023/04/10 00:18:36;;;;;;;0.70;0.70;;;;;;;4.73;69.72;97449.06;29395;266;63009;-57
2023/04/10 00:19:08;;;;;;;0.60;0.60;;;;;;;4.74;70.01;97449.88;29395;268;63004;-56
2023/04/10 00:19:39;;;;;;;0.60;0.60;;;;;;;4.74;70.85;97447.19;29396;305;63022;-57
2023/04/10 00:20:11;;;;;;;0.55;0.55;;;;;;;4.71;70.72;97446.59;29395;311;63004;-57
2023/04/10 00:20:42;;;;;;;0.60;0.60;;;;;;;4.71;70.51;97441.22;29395;230;63016;-57
2023/04/10 00:21:14;;;;;;;0.60;0.60;;;;;;;4.71;70.65;97445.78;29394;280;64015;-58
2023/04/10 00:21:45;;;;;;;0.60;0.60;;;;;;;4.71;70.32;97441.22;29395;241;63008;-57
2023/04/10 00:22:17;;;;;;;0.60;0.60;;;;;;;4.71;70.61;97449.28;29395;339;63004;-56
2023/04/10 00:22:49;;;;;;;0.60;0.60;;;;;;;4.71;70.22;97446.59;29395;204;63009;-57
2023/04/10 00:23:20;;;;;;;0.50;0.50;;;;;;;4.74;70.19;97441.81;29395;247;63005;-57
2023/04/10 00:23:51;;;;;;;0.60;0.60;;;;;;;4.75;70.24;97438.06;29395;205;63009;-56
2023/04/10 00:24:23;;;;;;;0.60;0.60;;;;;;;4.75;70.66;97440.75;29395;211;63005;-56
2023/04/10 00:24:54;;;;;;;0.60;0.60;;;;;;;4.74;70.60;97444.50;29395;210;63009;-58
2023/04/10 00:25:25;;;;;;;0.60;0.60;;;;;;;4.71;70.62;97446.59;29395;215;63005;-56
2023/04/10 00:25:56;;;;;;;0.60;0.60;;;;;;;4.69;70.43;97432.59;29395;267;63009;-56
2023/04/10 00:26:29;;;;;;;0.60;0.60;;;;;;;4.70;70.49;97442.28;29394;236;64004;-56
2023/04/10 00:27:00;;;;;;;0.50;0.50;;;;;;;4.70;70.28;97434.22;29395;248;63020;-56
2023/04/10 00:27:32;;;;;;;0.60;0.60;;;;;;;4.69;70.59;97437.16;29395;242;63004;-56
2023/04/10 00:28:04;;;;;;;0.60;0.60;;;;;;;4.69;70.33;97442.53;29395;375;63009;-57
2023/04/10 00:28:36;;;;;;;0.60;0.60;;;;;;;4.67;70.57;97436.56;29395;218;63008;-56
2023/04/10 00:29:08;;;;;;;0.60;0.60;;;;;;;4.65;71.18;97436.00;29395;218;63024;-56
2023/04/10 00:29:40;;;;;;;0.60;0.60;;;;;;;4.63;70.58;97438.09;29395;229;63005;-56
2023/04/10 00:30:11;;;;;;;0.60;0.60;;;;;;;4.61;70.87;97438.34;29395;296;63026;-56
2023/04/10 00:30:42;;;;;;;0.60;0.60;;;;;;;4.61;71.36;97437.53;29395;223;63005;-57
2023/04/10 00:31:14;;;;;;;0.60;0.60;;;;;;;4.60;71.14;97435.91;29395;412;63009;-56
2023/04/10 00:31:48;;;;;;;0.60;0.60;;;;;;;4.59;70.60;97443.16;29394;211;64005;-55
2023/04/10 00:32:20;;;;;;;0.60;0.60;;;;;;;4.61;70.50;97437.53;29395;224;63009;-56
2023/04/10 00:32:51;;;;;;;0.60;0.60;;;;;;;4.61;70.94;97435.66;29395;236;63005;-56
2023/04/10 00:33:23;;;;;;;0.50;0.50;;;;;;;4.60;70.65;97438.59;29395;240;63009;-57
2023/04/10 00:33:54;;;;;;;0.50;0.50;;;;;;;4.60;70.59;97431.34;29395;219;63004;-56
2023/04/10 00:34:25;;;;;;;0.50;0.50;;;;;;;4.59;70.81;97443.16;29395;241;63009;-55
2023/04/10 00:34:56;;;;;;;0.50;0.50;;;;;;;4.57;71.27;97439.06;29395;247;63004;-56
2023/04/10 00:35:28;;;;;;;0.60;0.60;;;;;;;4.56;71.07;97432.87;29395;295;63009;-56
2023/04/10 00:35:59;;;;;;;0.50;0.50;;;;;;;4.54;71.50;97440.34;29395;215;63004;-56
2023/04/10 00:36:30;;;;;;;0.57;0.57;;;;;;;4.50;71.28;97444.59;29395;220;63008;-56
2023/04/10 00:37:01;;;;;;;0.60;0.60;;;;;;;4.48;70.88;97435.16;29394;368;64005;-56
2023/04/10 00:37:33;;;;;;;0.60;0.60;;;;;;;4.48;70.99;97435.97;29395;322;63009;-57
2023/04/10 00:38:04;;;;;;;0.60;0.60;;;;;;;4.50;71.06;97433.03;29395;241;63005;-57
2023/04/10 00:38:36;;;;;;;0.50;0.50;;;;;;;4.50;71.01;97433.03;29395;240;63009;-56
2023/04/10 00:39:08;;;;;;;0.60;0.60;;;;;;;4.52;70.88;97436.28;29395;204;63005;-56
2023/04/10 00:39:40;;;;;;;0.60;0.60;;;;;;;4.52;70.76;97431.72;29395;217;63009;-56
2023/04/10 00:40:12;;;;;;;0.50;0.50;;;;;;;4.52;70.36;97431.72;29395;211;63005;-59
2023/04/10 00:40:43;;;;;;;0.60;0.60;;;;;;;4.53;70.22;97433.34;29395;304;63014;-56
2023/04/10 00:41:15;;;;;;;0.60;0.60;;;;;;;4.52;70.48;97431.72;29395;224;63004;-57
2023/04/10 00:41:47;;;;;;;0.60;0.60;;;;;;;4.50;70.76;97438.41;29395;215;63009;-56
2023/04/10 00:42:18;;;;;;;0.60;0.60;;;;;;;4.49;71.17;97432.22;29394;224;64004;-56
2023/04/10 00:42:49;;;;;;;0.60;0.60;;;;;;;4.48;71.33;97445.91;29395;199;63009;-56
2023/04/10 00:43:21;;;;;;;0.50;0.50;;;;;;;4.48;70.88;97430.59;29395;259;63015;-56
2023/04/10 00:43:56;;;;;;;0.73;0.73;;;;;;;4.50;70.63;97433.88;29395;225;63008;-56
2023/04/10 00:44:27;;;;;;;0.60;0.60;;;;;;;4.53;70.41;97433.34;29394;225;63996;-56
2023/04/10 00:44:59;;;;;;;0.60;0.60;;;;;;;4.56;70.32;97424.81;29395;236;63008;-56
2023/04/10 00:45:31;;;;;;;0.60;0.60;;;;;;;4.59;70.00;97435.09;29394;219;64005;-56
2023/04/10 00:46:04;;;;;;;0.60;0.60;;;;;;;4.62;69.96;97431.09;29395;206;63009;-56
2023/04/10 00:46:38;;;;;;;0.60;0.60;;;;;;;4.62;70.10;97426.53;29395;300;63005;-56
2023/04/10 00:47:12;;;;;;;0.60;0.60;;;;;;;4.63;69.88;97430.03;29395;212;63023;-56
2023/04/10 00:47:44;;;;;;;0.60;0.60;;;;;;;4.63;70.18;97428.16;29395;249;63009;-56
2023/04/10 00:48:16;;;;;;;0.50;0.50;;;;;;;4.62;70.27;97431.91;29395;222;63009;-56
2023/04/10 00:48:48;;;;;;;0.60;0.60;;;;;;;4.62;70.75;97425.72;29395;211;63018;-56
2023/04/10 00:49:20;;;;;;;0.60;0.60;;;;;;;4.61;70.58;97424.91;29394;223;64009;-55
2023/04/10 00:49:53;;;;;;;0.60;0.60;;;;;;;4.61;70.31;97422.22;29395;197;63004;-56
2023/04/10 00:50:24;;;;;;;0.50;0.50;;;;;;;4.61;70.93;97424.91;29394;224;64009;-56
2023/04/10 00:50:55;;;;;;;0.50;0.50;;;;;;;4.62;70.90;97425.72;29395;213;63004;-56
2023/04/10 00:51:27;;;;;;;0.60;0.60;;;;;;;4.59;70.37;97429.72;29395;209;63008;-56
2023/04/10 00:51:58;;;;;;;0.60;0.60;;;;;;;4.57;70.67;97431.00;29395;208;63005;-56
2023/04/10 00:52:31;;;;;;;0.60;0.60;;;;;;;4.56;70.99;97432.87;29395;210;63009;-55
2023/04/10 00:53:04;;;;;;;0.60;0.60;;;;;;;4.52;71.40;97425.53;29395;199;63005;-56
2023/04/10 00:53:36;;;;;;;0.60;0.60;;;;;;;4.50;71.64;97424.97;29395;221;63009;-56
2023/04/10 00:54:09;;;;;;;0.60;0.60;;;;;;;4.48;71.74;97430.59;29395;231;63005;-56
2023/04/10 00:54:41;;;;;;;0.50;0.50;;;;;;;4.47;71.29;97423.59;29394;209;64009;-56
2023/04/10 00:55:13;;;;;;;0.60;0.60;;;;;;;4.46;71.48;97421.97;29395;344;63012;-56
2023/04/10 00:55:45;;;;;;;0.60;0.60;;;;;;;4.46;71.44;97429.22;29395;296;63012;-56
2023/04/10 00:56:20;;;;;;;0.60;0.60;;;;;;;4.43;71.63;97424.31;29395;196;63004;-56
2023/04/10 00:56:52;;;;;;;1.25;1.25;;;;;;;4.42;70.97;97420.81;29395;197;63009;-56
2023/04/10 00:57:25;;;;;;;0.60;0.60;;;;;;;4.44;70.88;97421.38;29395;203;63004;-56
2023/04/10 00:57:57;;;;;;;0.60;0.60;;;;;;;4.46;70.79;97421.16;29395;206;63009;-56
2023/04/10 00:58:28;;;;;;;0.60;0.60;;;;;;;4.45;70.91;97419.50;29394;246;64004;-56
2023/04/10 00:59:01;;;;;;;0.60;0.60;;;;;;;4.42;71.76;97422.69;29395;233;63008;-56
2023/04/10 00:59:33;;;;;;;0.60;0.60;;;;;;;4.39;71.70;97426.66;29395;230;63005;-56
2023/04/10 01:00:07;;;;;;;0.50;0.50;;;;;;;4.32;72.26;97417.91;29395;235;63009;-56
2023/04/10 01:00:40;;;;;;;0.65;0.65;;;;;;;4.30;71.75;97423.53;29395;210;63018;-58
2023/04/10 01:01:11;;;;;;;0.60;0.60;;;;;;;4.31;71.91;97424.34;29395;218;63009;-57
2023/04/10 01:01:43;;;;;;;0.60;0.60;;;;;;;4.28;72.18;97425.63;29395;242;63005;-57
2023/04/10 01:02:14;;;;;;;0.60;0.60;;;;;;;4.28;72.48;97424.81;29395;334;63009;-56
2023/04/10 01:02:46;;;;;;;0.70;0.70;;;;;;;4.29;71.92;97426.47;29395;202;63017;-56
2023/04/10 01:03:20;;;;;;;1.08;1.08;;;;;;;4.32;71.53;97425.97;29395;202;63009;-56
2023/04/10 01:03:52;;;;;;;0.60;0.60;;;;;;;4.30;72.19;97426.22;29394;208;64004;-56
2023/04/10 01:04:27;;;;;;;0.60;0.60;;;;;;;4.27;72.29;97424.00;29395;245;63009;-56
2023/04/10 01:04:59;;;;;;;0.60;0.60;;;;;;;4.27;72.10;97423.19;29394;277;63997;-56
2023/04/10 01:05:44;;;;;;;0.70;0.70;;;;;;;4.26;71.90;97421.56;29395;229;63009;-56
2023/04/10 01:06:40;;;;;;;0.60;0.60;;;;;;;4.28;71.62;97424.81;29395;214;63004;-56
2023/04/10 01:07:50;;;;;;;0.60;0.60;;;;;;;4.24;72.26;97423.66;29395;356;63009;-56
2023/04/10 01:08:46;;;;;;;0.60;0.60;;;;;;;4.21;72.21;97419.59;29395;213;63005;-56
2023/04/10 01:09:58;;;;;;;0.60;0.60;;;;;;;4.21;72.21;97418.78;29395;229;63009;-56
2023/04/10 01:10:57;;;;;;;0.60;0.60;;;;;;;4.21;71.73;97424.97;29416;238;64004;-56
2023/04/10 01:12:18;;;;;;;0.60;0.60;;;;;;;4.22;71.83;97423.09;29395;223;63018;-56
2023/04/10 01:13:30;;;;;;;0.60;0.60;;;;;;;4.21;72.82;97429.50;29395;272;63004;-56
2023/04/10 01:14:22;;;;;;;1.10;1.02;;;;;;;4.11;73.06;97427.47;29395;207;63008;-56
2023/04/10 01:15:16;;;;;;;0.60;0.60;;;;;;;4.09;72.14;97426.06;29395;222;63005;-57
2023/04/10 01:15:57;;;;;;;0.70;0.70;;;;;;;4.09;72.81;97424.22;29394;328;64009;-57
2023/04/10 01:16:41;;;;;;;0.60;0.60;;;;;;;4.08;73.21;97435.19;29395;235;63015;-57
2023/04/10 01:17:21;;;;;;;0.60;0.60;;;;;;;4.02;73.53;97427.03;29395;253;63009;-56
2023/04/10 01:18:10;;;;;;;0.60;0.60;;;;;;;4.02;73.25;97426.22;29417;215;63007;-57
2023/04/10 01:18:49;;;;;;;0.60;0.60;;;;;;;4.03;73.23;97428.66;29395;216;63009;-56
2023/04/10 01:19:59;;;;;;;0.60;0.60;;;;;;;4.02;73.10;97431.56;29395;338;63004;-57
2023/04/10 01:20:38;;;;;;;0.60;0.60;;;;;;;4.04;72.85;97424.91;29395;219;63008;-56
2023/04/10 01:21:13;;;;;;;0.60;0.60;;;;;;;4.06;72.94;97429.22;29394;241;64005;-57
2023/04/10 01:21:45;;;;;;;0.60;0.60;;;;;;;4.07;72.72;97433.56;29395;238;63009;-57
2023/04/10 01:22:20;;;;;;;0.60;0.60;;;;;;;4.08;72.64;97424.44;29395;229;63012;-57
2023/04/10 01:23:31;;;;;;;0.60;0.60;;;;;;;4.10;72.33;97433.91;29395;207;63009;-56
2023/04/10 01:24:32;;;;;;;0.60;0.60;;;;;;;4.14;72.24;97429.69;29395;236;63005;-57
2023/04/10 01:25:38;;;;;;;0.60;0.60;;;;;;;4.20;72.16;97426.00;29395;225;63009;-57
2023/04/10 01:26:13;;;;;;;0.60;0.60;;;;;;;4.21;71.91;97426.84;29394;202;64004;-56
2023/04/10 01:27:06;;;;;;;0.60;0.60;;;;;;;4.22;71.86;97429.28;29395;228;63009;-57
2023/04/10 01:28:06;;;;;;;0.60;0.60;;;;;;;4.25;71.75;97425.31;29395;233;63004;-56
2023/04/10 01:29:02;;;;;;;0.60;0.60;;;;;;;4.25;71.97;97428.00;29395;258;63009;-57
2023/04/10 01:29:40;;;;;;;0.90;0.90;;;;;;;4.26;71.99;97424.25;29395;233;63007;-56
2023/04/10 01:30:17;;;;;;;0.60;0.60;;;;;;;4.25;71.73;97423.44;29395;286;63009;-57
2023/04/10 01:30:53;;;;;;;0.50;0.50;;;;;;;4.25;71.86;97425.31;29395;197;63005;-57
2023/04/10 01:32:14;;;;;;;0.60;0.60;;;;;;;4.22;71.87;97429.28;29394;292;64009;-57
2023/04/10 01:32:45;;;;;;;0.60;0.60;;;;;;;4.20;72.46;97420.62;29373;329;63005;-57
2023/04/10 01:33:23;;;;;;;0.60;0.60;;;;;;;4.20;71.76;97427.88;29395;204;63009;-56
2023/04/10 01:34:01;;;;;;;0.60;0.60;;;;;;;4.19;71.91;97420.88;29395;197;63014;-56
2023/04/10 01:34:46;;;;;;;0.70;0.70;;;;;;;4.19;72.06;97437.00;29395;320;63009;-57
2023/04/10 01:35:19;;;;;;;0.62;0.62;;;;;;;4.17;71.72;97428.34;29395;226;63004;-56
2023/04/10 01:35:55;;;;;;;0.60;0.60;;;;;;;4.19;71.89;97434.31;29395;308;63008;-56
2023/04/10 01:36:35;;;;;;;0.60;0.60;;;;;;;4.19;72.02;97428.94;29394;336;64005;-56
2023/04/10 01:37:29;;;;;;;0.60;0.60;;;;;;;4.20;71.75;97427.88;29417;198;63025;-57
2023/04/10 01:38:04;;;;;;;0.60;0.60;;;;;;;4.20;71.93;97433.25;29395;220;63005;-57
2023/04/10 01:38:42;;;;;;;0.60;0.60;;;;;;;4.20;72.01;97433.25;29395;229;63015;-57
2023/04/10 01:39:19;;;;;;;0.60;0.60;;;;;;;4.19;72.03;97426.25;29395;197;63005;-56
2023/04/10 01:40:02;;;;;;;0.60;0.60;;;;;;;4.18;71.70;97425.44;29395;197;63009;-57
2023/04/10 01:40:37;;;;;;;0.60;0.60;;;;;;;4.20;71.93;97423.31;29395;238;63004;-56
2023/04/10 01:41:08;;;;;;;0.60;0.60;;;;;;;4.21;71.77;97424.16;29395;205;63009;-57
2023/04/10 01:41:43;;;;;;;0.60;0.60;;;;;;;4.21;71.82;97424.97;29394;209;64004;-57
2023/04/10 01:42:19;;;;;;;0.60;0.60;;;;;;;4.22;71.99;97426.59;29395;216;63009;-57
2023/04/10 01:42:54;;;;;;;0.60;0.60;;;;;;;4.22;71.89;97428.47;29395;202;63004;-57
2023/04/10 01:43:27;;;;;;;0.60;0.60;;;;;;;4.23;71.72;97422.03;29395;197;63008;-57
2023/04/10 01:44:02;;;;;;;0.55;0.55;;;;;;;4.25;71.56;97425.31;29395;240;63005;-56
2023/04/10 01:44:37;;;;;;;0.60;0.60;;;;;;;4.27;71.22;97420.50;29395;219;63009;-56
2023/04/10 01:45:16;;;;;;;0.50;0.50;;;;;;;4.28;71.36;97422.97;29395;231;63011;-57
2023/04/10 01:45:51;;;;;;;0.52;0.52;;;;;;;4.31;71.11;97418.97;29395;216;63009;-62
2023/04/10 01:46:28;;;;;;;0.60;0.60;;;;;;;4.32;71.05;97420.59;29395;205;63005;-57
2023/04/10 01:47:01;;;;;;;0.60;0.60;;;;;;;4.30;71.53;97411.97;29394;231;64009;-57
2023/04/10 01:47:33;;;;;;;0.57;0.57;;;;;;;4.31;71.22;97409.03;29373;205;63005;-56
2023/04/10 01:48:05;;;;;;;0.60;0.60;;;;;;;4.32;70.78;97415.22;29395;302;63019;-56
2023/04/10 01:48:37;;;;;;;0.60;0.60;;;;;;;4.30;70.89;97411.97;29395;197;63004;-57
2023/04/10 01:49:09;;;;;;;0.60;0.60;;;;;;;4.28;70.73;97414.09;29395;218;63009;-57
2023/04/10 01:49:43;;;;;;;0.60;0.60;;;;;;;4.30;70.58;97414.66;29395;209;63004;-56
2023/04/10 01:50:15;;;;;;;0.50;0.50;;;;;;;4.31;70.41;97409.03;29395;196;63009;-57
2023/04/10 01:50:48;;;;;;;0.60;0.60;;;;;;;4.34;70.48;97407.75;29395;224;63004;-57
2023/04/10 01:51:21;;;;;;;0.60;0.60;;;;;;;4.36;70.37;97406.47;29395;211;63009;-57
2023/04/10 01:51:57;;;;;;;0.60;0.60;;;;;;;4.42;69.98;97415.44;29395;205;63010;-56
2023/04/10 01:52:30;;;;;;;0.60;0.60;;;;;;;4.48;69.43;97397.53;29394;240;64009;-57
2023/04/10 01:53:05;;;;;;;0.60;0.60;;;;;;;4.52;69.24;97404.03;29395;374;63005;-57
2023/04/10 01:53:37;;;;;;;0.60;0.60;;;;;;;4.54;69.08;97397.34;29395;205;63009;-58
2023/04/10 01:54:10;;;;;;;0.60;0.60;;;;;;;4.58;68.62;97398.50;29395;238;63009;-58
2023/04/10 01:54:44;;;;;;;0.50;0.50;;;;;;;4.59;68.50;97400.13;29395;271;63009;-56
2023/04/10 01:55:16;;;;;;;0.60;0.60;;;;;;;4.58;68.84;97403.06;29395;262;63016;-57
2023/04/10 01:55:49;;;;;;;0.60;0.60;;;;;;;4.59;68.64;97407.38;29395;231;63009;-57
2023/04/10 01:56:20;;;;;;;0.60;0.60;;;;;;;4.58;68.65;97397.69;29395;216;63008;-57
2023/04/10 01:56:52;;;;;;;0.60;0.60;;;;;;;4.58;68.67;97403.06;29395;199;63009;-57
2023/04/10 01:57:24;;;;;;;0.60;0.60;;;;;;;4.59;68.52;97404.69;29395;196;63004;-58
2023/04/10 01:57:55;;;;;;;0.60;0.60;;;;;;;4.58;68.68;97395.81;29394;237;64009;-58
2023/04/10 01:58:30;;;;;;;0.60;0.60;;;;;;;4.58;68.84;97398.50;29395;203;63004;-58
2023/04/10 01:59:02;;;;;;;0.50;0.50;;;;;;;4.55;69.18;97399.00;29395;226;63009;-57
2023/04/10 01:59:34;;;;;;;0.60;0.60;;;;;;;4.54;69.20;97394.69;29395;229;63005;-58
2023/04/10 02:00:07;;;;;;;0.50;0.50;;;;;;;4.49;69.12;97397.28;29395;219;63009;-58
2023/04/10 02:00:43;;;;;;;0.70;0.70;;;;;;;4.49;69.00;97394.59;29395;213;63005;-56
2023/04/10 02:01:21;;;;;;;0.60;0.60;;;;;;;4.54;68.79;97401.91;29395;265;63009;-57
2023/04/10 02:01:56;;;;;;;0.50;0.50;;;;;;;4.53;69.46;97400.28;29395;202;63005;-57
2023/04/10 02:02:32;;;;;;;0.60;0.60;;;;;;;4.52;68.86;97404.03;29395;197;63009;-56
2023/04/10 02:03:03;;;;;;;0.60;0.60;;;;;;;4.51;69.10;97405.09;29394;234;64004;-57
2023/04/10 02:03:38;;;;;;;0.50;0.50;;;;;;;4.55;68.88;97403.56;29394;202;64009;-56
2023/04/10 02:04:09;;;;;;;0.60;0.60;;;;;;;4.59;68.57;97400.13;29395;220;63004;-58
2023/04/10 02:04:40;;;;;;;0.50;0.50;;;;;;;4.62;68.42;97399.66;29395;225;63009;-57
2023/04/10 02:05:11;;;;;;;0.50;0.50;;;;;;;4.62;68.39;97399.66;29395;250;63004;-56
2023/04/10 02:06:10;;;;;;;0.60;0.60;;;;;;;4.63;68.35;97395.09;29395;235;63008;-57
2023/04/10 02:07:11;;;;;;;0.60;0.60;;;;;;;4.62;67.97;97405.03;29395;216;63005;-57
2023/04/10 02:07:57;;;;;;;0.60;0.60;;;;;;;4.58;68.59;97401.19;29395;235;63009;-56
2023/04/10 02:08:35;;;;;;;0.60;0.60;;;;;;;4.56;68.55;97399.81;29394;263;63996;-56
2023/04/10 02:09:27;;;;;;;0.60;0.60;;;;;;;4.53;68.76;97401.09;29395;218;63009;-57
2023/04/10 02:10:27;;;;;;;0.60;0.60;;;;;;;4.51;69.20;97402.41;29395;217;63005;-60
2023/04/10 02:11:30;;;;;;;0.60;0.60;;;;;;;4.46;69.21;97405.84;29373;199;63009;-57
2023/04/10 02:12:05;;;;;;;0.60;0.60;;;;;;;4.45;69.14;97398.84;29394;209;64004;-57
2023/04/10 02:12:58;;;;;;;2.35;2.25;;;;;;;4.45;69.21;97398.00;29395;226;63018;-57
2023/04/10 02:13:33;;;;;;;0.50;0.50;;;;;;;4.45;69.42;97398.84;29395;235;63004;-57
2023/04/10 02:14:28;;;;;;;0.60;0.60;;;;;;;4.45;69.38;97398.00;29395;219;63009;-57
2023/04/10 02:15:01;;;;;;;0.60;0.60;;;;;;;4.44;69.55;97399.88;29395;198;63005;-57
2023/04/10 02:15:37;;;;;;;0.50;0.50;;;;;;;4.42;69.47;97399.31;29395;207;63009;-57
2023/04/10 02:16:11;;;;;;;0.60;0.60;;;;;;;4.42;69.60;97393.94;29395;218;63005;-56
2023/04/10 02:16:43;;;;;;;0.60;0.60;;;;;;;4.41;69.43;97396.88;29395;205;63028;-56
2023/04/10 02:17:22;;;;;;;0.60;0.60;;;;;;;4.39;69.54;97405.16;29394;232;64005;-57
2023/04/10 02:17:55;;;;;;;0.60;0.60;;;;;;;4.37;69.67;97400.03;29395;313;63015;-57
2023/04/10 02:18:26;;;;;;;0.55;0.55;;;;;;;4.36;69.76;97401.09;29395;204;63004;-57
2023/04/10 02:19:00;;;;;;;0.60;0.60;;;;;;;4.34;69.78;97402.37;29395;207;63009;-56
2023/04/10 02:19:33;;;;;;;0.60;0.60;;;;;;;4.32;70.04;97404.50;29395;219;63004;-56
2023/04/10 02:20:09;;;;;;;0.60;0.60;;;;;;;4.31;70.14;97398.31;29395;212;63016;-56
2023/04/10 02:20:41;;;;;;;0.60;0.60;;;;;;;4.29;70.18;97399.59;29395;205;63005;-57
2023/04/10 02:21:13;;;;;;;0.60;0.60;;;;;;;4.27;70.14;97402.53;29395;209;63009;-58
2023/04/10 02:21:44;;;;;;;0.55;0.55;;;;;;;4.25;70.38;97406.50;29395;222;63005;-57
2023/04/10 02:22:16;;;;;;;0.55;0.55;;;;;;;4.24;70.08;97404.88;29394;215;64009;-56
2023/04/10 02:22:48;;;;;;;0.60;0.60;;;;;;;4.22;70.29;97404.28;29395;226;63005;-57
2023/04/10 02:23:20;;;;;;;0.60;0.60;;;;;;;4.19;70.27;97404.75;29395;341;63009;-56
2023/04/10 02:23:52;;;;;;;0.60;0.60;;;;;;;4.19;70.46;97407.44;29395;202;63005;-57
2023/04/10 02:24:24;;;;;;;0.60;0.60;;;;;;;4.15;70.47;97409.00;29395;263;63013;-57
2023/04/10 02:24:57;;;;;;;0.60;0.60;;;;;;;4.14;70.56;97415.44;29395;328;63004;-57
2023/04/10 02:25:32;;;;;;;0.60;0.60;;;;;;;4.12;70.56;97404.94;29395;204;63009;-56
2023/04/10 02:26:09;;;;;;;0.60;0.60;;;;;;;4.13;70.84;97411.13;29395;277;63004;-56
2023/04/10 02:26:49;;;;;;;0.60;0.60;;;;;;;4.13;70.75;97411.13;29395;339;63009;-57
2023/04/10 02:27:35;;;;;;;0.60;0.60;;;;;;;4.10;70.72;97408.91;29394;227;64004;-57
2023/04/10 02:28:07;;;;;;;0.60;0.60;;;;;;;4.09;70.50;97409.97;29395;227;63008;-57
2023/04/10 02:28:39;;;;;;;0.60;0.60;;;;;;;4.06;70.80;97410.44;29395;222;63005;-57
2023/04/10 02:29:10;;;;;;;0.60;0.60;;;;;;;4.06;70.63;97411.25;29395;246;63009;-57
2023/04/10 02:29:42;;;;;;;0.50;0.50;;;;;;;4.07;70.82;97412.06;29395;207;63005;-56
2023/04/10 02:30:13;;;;;;;0.60;0.60;;;;;;;4.06;70.68;97405.88;29395;235;63009;-61
2023/04/10 02:30:44;;;;;;;0.60;0.60;;;;;;;4.07;70.86;97417.44;29395;240;63005;-57
2023/04/10 02:31:15;;;;;;;0.60;0.60;;;;;;;4.06;70.87;97410.44;29395;213;63009;-57
2023/04/10 02:31:48;;;;;;;0.52;0.52;;;;;;;4.03;70.78;97409.84;29395;235;63005;-58
2023/04/10 02:32:20;;;;;;;0.60;0.60;;;;;;;4.03;70.90;97407.16;29394;235;64009;-57
2023/04/10 02:32:51;;;;;;;0.60;0.60;;;;;;;4.03;71.10;97401.81;29395;286;63004;-57
2023/04/10 02:33:22;;;;;;;0.60;0.60;;;;;;;4.02;71.01;97404.72;29395;246;63009;-57
2023/04/10 02:33:54;;;;;;;0.60;0.60;;;;;;;4.01;71.07;97409.28;29395;206;63004;-56
2023/04/10 02:34:26;;;;;;;0.57;0.57;;;;;;;4.01;70.95;97403.09;29395;241;63009;-57
2023/04/10 02:34:57;;;;;;;0.50;0.50;;;;;;;4.00;71.20;97407.66;29395;197;63004;-56
2023/04/10 02:35:28;;;;;;;0.50;0.50;;;;;;;4.00;71.07;97402.28;29395;209;63018;-57
2023/04/10 02:36:00;;;;;;;0.60;0.60;;;;;;;4.01;71.10;97413.84;29395;218;63005;-56
2023/04/10 02:36:34;;;;;;;0.60;0.60;;;;;;;4.02;71.20;97410.91;29395;243;63009;-56
2023/04/10 02:37:05;;;;;;;0.60;0.60;;;;;;;4.02;71.31;97410.09;29395;318;63005;-57
2023/04/10 02:37:36;;;;;;;0.60;0.60;;;;;;;4.02;71.14;97410.09;29394;236;64009;-56
2023/04/10 02:38:08;;;;;;;0.60;0.60;;;;;;;4.03;71.12;97404.50;29395;203;63005;-56
2023/04/10 02:38:39;;;;;;;0.60;0.60;;;;;;;4.04;71.11;97413.34;29394;213;64009;-58
2023/04/10 02:39:10;;;;;;;0.55;0.55;;;;;;;4.06;71.26;97410.44;29395;324;63005;-57
2023/04/10 02:39:41;;;;;;;0.60;0.60;;;;;;;4.07;70.87;97401.31;29395;360;63009;-57
2023/04/10 02:40:13;;;;;;;0.60;0.60;;;;;;;4.10;70.82;97407.03;29395;208;63004;-57
2023/04/10 02:40:45;;;;;;;0.60;0.60;;;;;;;4.12;70.56;97401.44;29395;219;63009;-57
2023/04/10 02:41:16;;;;;;;0.60;0.60;;;;;;;4.11;70.72;97407.84;29395;212;63018;-56
2023/04/10 02:41:47;;;;;;;0.60;0.60;;;;;;;4.12;70.68;97409.50;29395;223;63009;-56
2023/04/10 02:42:18;;;;;;;0.60;0.60;;;;;;;4.13;71.07;97405.75;29395;296;63004;-56
2023/04/10 02:42:49;;;;;;;0.60;0.60;;;;;;;4.13;71.04;97405.75;29394;238;64008;-57
2023/04/10 02:43:21;;;;;;;0.60;0.60;;;;;;;4.13;70.68;97405.75;29394;213;63996;-57
2023/04/10 02:43:52;;;;;;;0.60;0.60;;;;;;;4.13;70.59;97405.75;29395;212;63009;-57
2023/04/10 02:44:23;;;;;;;0.60;0.60;;;;;;;4.14;70.72;97402.81;29395;219;63005;-57
2023/04/10 02:44:55;;;;;;;0.60;0.60;;;;;;;4.15;70.71;97409.81;29395;219;63009;-56
2023/04/10 02:45:26;;;;;;;0.60;0.60;;;;;;;4.15;70.90;97409.00;29395;212;63005;-57
2023/04/10 02:45:58;;;;;;;0.50;0.50;;;;;;;4.15;70.61;97406.31;29395;294;63009;-57
2023/04/10 02:46:30;;;;;;;0.60;0.60;;;;;;;4.15;70.92;97411.69;29396;235;63019;-56
2023/04/10 02:47:01;;;;;;;0.60;0.60;;;;;;;4.12;70.96;97410.31;29394;233;64009;-57
2023/04/10 02:47:32;;;;;;;0.60;0.60;;;;;;;4.12;71.01;97409.50;29395;253;63004;-56
2023/04/10 02:48:07;;;;;;;0.60;0.60;;;;;;;4.11;70.87;97413.22;29395;403;63009;-57
2023/04/10 02:48:38;;;;;;;0.60;0.60;;;;;;;4.11;71.04;97407.84;29395;310;63006;-57
2023/04/10 02:49:09;;;;;;;0.50;0.50;;;;;;;4.10;71.10;97411.59;29394;308;64009;-56
2023/04/10 02:49:40;;;;;;;0.60;0.60;;;;;;;4.09;70.89;97410.78;29395;240;63008;-57
2023/04/10 02:50:12;;;;;;;0.60;0.60;;;;;;;4.09;70.92;97409.97;29395;245;63008;-57
2023/04/10 02:50:45;;;;;;;0.60;0.60;;;;;;;4.06;71.35;97411.25;29395;199;63004;-57
2023/04/10 02:51:16;;;;;;;0.60;0.60;;;;;;;4.04;71.11;97408.00;29395;224;63020;-57